Time,TemperatureF,DewpointF,PressureIn,WindDirection,WindDirectionDegrees,WindSpeedMPH,WindSpeedGustMPH,Humidity,HourlyPrecipIn,Conditions,Clouds,dailyrainin,SoftwareType,DateUTC
2013-10-17 00:02:00,31.6,18.1,30.12,WSW,248,1.0,5.0,57,0.00,,,0.03,meteohub,2013-10-17 06:02:00,
2013-10-17 00:08:00,31.6,18.5,30.12,WSW,248,0.0,5.0,58,0.00,,,0.00,meteohub,2013-10-17 06:08:00,
2013-10-17 00:14:00,31.5,18.0,30.12,WSW,248,0.0,3.0,57,0.00,,,0.00,meteohub,2013-10-17 06:14:00,
2013-10-17 00:20:00,31.1,18.1,30.11,WSW,248,3.0,3.0,58,0.00,,,0.00,meteohub,2013-10-17 06:20:00,
2013-10-17 00:26:00,30.7,18.1,30.11,WSW,248,3.0,4.0,59,0.00,,,0.00,meteohub,2013-10-17 06:26:00,
2013-10-17 00:32:00,30.9,18.3,30.12,WSW,248,4.0,4.0,59,0.00,,,0.00,meteohub,2013-10-17 06:32:00,
2013-10-17 00:38:00,31.3,18.1,30.11,WSW,249,3.0,7.0,58,0.00,,,0.00,meteohub,2013-10-17 06:38:00,
2013-10-17 00:44:00,31.5,18.3,30.11,WSW,247,3.0,7.0,58,0.00,,,0.00,meteohub,2013-10-17 06:44:00,
2013-10-17 00:50:00,31.6,18.5,30.11,WSW,247,4.0,7.0,58,0.00,,,0.00,meteohub,2013-10-17 06:50:00,
2013-10-17 00:56:00,31.5,18.3,30.11,WSW,247,1.0,7.0,58,0.00,,,0.00,meteohub,2013-10-17 06:56:00,
2013-10-17 01:02:00,31.5,18.0,30.11,SW,233,5.0,7.0,57,0.00,,,0.00,meteohub,2013-10-17 07:02:00,
2013-10-17 01:08:00,31.8,18.0,30.11,WSW,240,6.0,13.0,56,0.00,,,0.00,meteohub,2013-10-17 07:08:00,
2013-10-17 01:15:00,32.5,17.8,30.11,SSW,195,6.0,13.0,54,0.00,,,0.00,meteohub,2013-10-17 07:15:00,
2013-10-17 01:21:00,32.5,17.2,30.11,SSW,202,5.0,15.0,53,0.00,,,0.00,meteohub,2013-10-17 07:21:00,
2013-10-17 01:27:00,32.4,17.1,30.11,SSW,209,3.0,15.0,53,0.00,,,0.00,meteohub,2013-10-17 07:27:00,
2013-10-17 01:33:00,32.0,17.2,30.11,SW,228,7.0,9.0,54,0.00,,,0.00,meteohub,2013-10-17 07:33:00,
2013-10-17 01:39:00,31.8,17.1,30.11,SW,233,6.0,9.0,54,0.00,,,0.00,meteohub,2013-10-17 07:39:00,
2013-10-17 01:45:00,31.8,17.1,30.11,WSW,237,4.0,9.0,54,0.00,,,0.00,meteohub,2013-10-17 07:45:00,
2013-10-17 01:51:00,31.6,16.9,30.11,SW,234,4.0,9.0,54,0.00,,,0.00,meteohub,2013-10-17 07:51:00,
2013-10-17 01:57:00,31.8,17.1,30.11,SW,224,3.0,9.0,54,0.00,,,0.00,meteohub,2013-10-17 07:57:00,
2013-10-17 02:03:00,32.2,17.4,30.11,SSW,203,7.0,9.0,54,0.00,,,0.00,meteohub,2013-10-17 08:03:00,
2013-10-17 02:09:00,32.4,17.1,30.12,SSW,207,8.0,12.0,53,0.00,,,0.00,meteohub,2013-10-17 08:09:00,
2013-10-17 02:15:00,32.5,17.2,30.12,SSW,203,8.0,12.0,53,0.00,,,0.00,meteohub,2013-10-17 08:15:00,
2013-10-17 02:21:00,32.4,17.1,30.12,SW,230,6.0,15.0,53,0.00,,,0.00,meteohub,2013-10-17 08:21:00,
2013-10-17 02:27:00,32.2,17.4,30.12,SW,231,5.0,12.0,54,0.00,,,0.00,meteohub,2013-10-17 08:27:00,
2013-10-17 02:33:00,32.2,17.8,30.11,SSW,204,6.0,11.0,55,0.00,,,0.00,meteohub,2013-10-17 08:33:00,
2013-10-17 02:39:00,32.0,17.2,30.12,SW,223,8.0,11.0,54,0.00,,,0.00,meteohub,2013-10-17 08:39:00,
2013-10-17 02:45:00,31.8,17.1,30.12,WSW,243,7.0,11.0,54,0.00,,,0.00,meteohub,2013-10-17 08:45:00,
2013-10-17 02:51:00,31.8,16.7,30.12,WSW,246,3.0,11.0,53,0.00,,,0.00,meteohub,2013-10-17 08:51:00,
2013-10-17 02:57:00,32.4,17.1,30.11,SW,232,4.0,11.0,53,0.00,,,0.00,meteohub,2013-10-17 08:57:00,
2013-10-17 03:03:00,32.5,16.3,30.11,SW,232,4.0,12.0,51,0.00,,,0.00,meteohub,2013-10-17 09:03:00,
2013-10-17 03:09:00,32.4,15.8,30.11,SW,232,0.0,12.0,50,0.00,,,0.00,meteohub,2013-10-17 09:09:00,
2013-10-17 03:15:00,31.8,15.8,30.11,SW,232,0.0,5.0,51,0.00,,,0.00,meteohub,2013-10-17 09:15:00,
2013-10-17 03:21:00,31.1,15.1,30.10,SW,232,2.0,3.0,51,0.00,,,0.00,meteohub,2013-10-17 09:21:00,
2013-10-17 03:27:00,30.6,15.1,30.10,SW,232,3.0,3.0,52,0.00,,,0.00,meteohub,2013-10-17 09:27:00,
2013-10-17 03:33:00,29.7,15.1,30.10,SW,232,1.0,3.0,54,0.00,,,0.00,meteohub,2013-10-17 09:33:00,
2013-10-17 03:39:00,29.5,15.3,30.10,SW,232,2.0,4.0,55,0.00,,,0.00,meteohub,2013-10-17 09:39:00,
2013-10-17 03:45:00,29.7,15.1,30.10,SW,232,0.0,4.0,54,0.00,,,0.00,meteohub,2013-10-17 09:45:00,
2013-10-17 03:51:00,29.7,15.8,30.10,SW,232,0.0,7.0,56,0.00,,,0.00,meteohub,2013-10-17 09:51:00,
2013-10-17 03:57:00,29.8,16.0,30.09,SW,232,0.0,7.0,56,0.00,,,0.00,meteohub,2013-10-17 09:57:00,
2013-10-17 04:03:00,29.7,15.8,30.09,SW,232,1.0,7.0,56,0.00,,,0.00,meteohub,2013-10-17 10:03:00,
2013-10-17 04:09:00,29.5,15.8,30.09,SW,232,0.0,5.0,56,0.00,,,0.00,meteohub,2013-10-17 10:09:00,
2013-10-17 04:15:00,29.1,15.4,30.09,SW,232,3.0,3.0,56,0.00,,,0.00,meteohub,2013-10-17 10:15:00,
2013-10-17 04:21:00,28.4,15.1,30.09,SW,232,3.0,5.0,57,0.00,,,0.00,meteohub,2013-10-17 10:21:00,
2013-10-17 04:27:00,27.9,15.1,30.09,WSW,239,3.0,5.0,58,0.00,,,0.00,meteohub,2013-10-17 10:27:00,
2013-10-17 04:33:00,27.7,15.3,30.09,WSW,240,4.0,6.0,59,0.00,,,0.00,meteohub,2013-10-17 10:33:00,
2013-10-17 04:39:00,27.3,14.9,30.09,WSW,240,1.0,6.0,59,0.00,,,0.00,meteohub,2013-10-17 10:39:00,
2013-10-17 04:46:00,27.9,15.1,30.09,WSW,240,0.0,5.0,58,0.00,,,0.00,meteohub,2013-10-17 10:46:00,
2013-10-17 04:52:00,27.9,14.5,30.09,WSW,240,0.0,5.0,57,0.00,,,0.00,meteohub,2013-10-17 10:52:00,
2013-10-17 04:58:00,27.7,14.9,30.09,WSW,240,0.0,4.0,58,0.00,,,0.00,meteohub,2013-10-17 10:58:00,
2013-10-17 05:04:00,27.9,14.5,30.09,WSW,240,5.0,5.0,57,0.00,,,0.00,meteohub,2013-10-17 11:04:00,
2013-10-17 05:10:00,28.9,15.6,30.09,WSW,239,3.0,6.0,57,0.00,,,0.00,meteohub,2013-10-17 11:10:00,
2013-10-17 05:16:00,30.6,16.0,30.08,SSW,200,2.0,8.0,54,0.00,,,0.00,meteohub,2013-10-17 11:16:00,
2013-10-17 05:22:00,30.9,14.9,30.08,SSW,200,0.0,11.0,51,0.00,,,0.00,meteohub,2013-10-17 11:22:00,
2013-10-17 05:28:00,30.0,13.6,30.08,SSW,201,3.0,11.0,50,0.00,,,0.00,meteohub,2013-10-17 11:28:00,
2013-10-17 05:34:00,29.7,14.5,30.07,SSW,201,2.0,5.0,53,0.00,,,0.00,meteohub,2013-10-17 11:34:00,
2013-10-17 05:40:00,29.7,14.2,30.08,SSW,201,2.0,6.0,52,0.00,,,0.00,meteohub,2013-10-17 11:40:00,
2013-10-17 05:46:00,29.1,13.6,30.07,SSW,201,0.0,7.0,52,0.00,,,0.00,meteohub,2013-10-17 11:46:00,
2013-10-17 05:52:00,28.8,13.8,30.08,WSW,244,5.0,5.0,53,0.00,,,0.00,meteohub,2013-10-17 11:52:00,
2013-10-17 05:58:00,28.9,14.0,30.08,WSW,255,3.0,6.0,53,0.00,,,0.00,meteohub,2013-10-17 11:58:00,
2013-10-17 06:04:00,28.8,13.8,30.07,WSW,255,0.0,6.0,53,0.00,,,0.00,meteohub,2013-10-17 12:04:00,
2013-10-17 06:10:00,28.4,14.4,30.07,WSW,255,0.0,4.0,55,0.00,,,0.00,meteohub,2013-10-17 12:10:00,
2013-10-17 06:16:00,28.4,14.4,30.07,WSW,255,0.0,4.0,55,0.00,,,0.00,meteohub,2013-10-17 12:16:00,
2013-10-17 06:22:00,28.0,14.0,30.08,WSW,255,2.0,4.0,55,0.00,,,0.00,meteohub,2013-10-17 12:22:00,
2013-10-17 06:28:00,27.9,13.8,30.08,WSW,256,4.0,5.0,55,0.00,,,0.00,meteohub,2013-10-17 12:28:00,
2013-10-17 06:34:00,27.9,13.5,30.08,NW,310,2.0,5.0,54,0.00,,,0.00,meteohub,2013-10-17 12:34:00,
2013-10-17 06:40:00,27.9,13.5,30.08,NW,310,2.0,8.0,54,0.00,,,0.00,meteohub,2013-10-17 12:40:00,
2013-10-17 06:46:00,28.0,13.1,30.08,WNW,282,5.0,8.0,53,0.00,,,0.00,meteohub,2013-10-17 12:46:00,
2013-10-17 06:52:00,28.8,13.3,30.08,WNW,282,4.0,9.0,52,0.00,,,0.00,meteohub,2013-10-17 12:52:00,
2013-10-17 06:58:00,29.5,14.9,30.08,WNW,282,3.0,9.0,54,0.00,,,0.00,meteohub,2013-10-17 12:58:00,
2013-10-17 07:04:00,29.8,14.0,30.08,WSW,251,3.0,9.0,51,0.00,,,0.00,meteohub,2013-10-17 13:04:00,
2013-10-17 07:10:00,30.2,14.2,30.08,SW,235,8.0,8.0,51,0.00,,,0.00,meteohub,2013-10-17 13:10:00,
2013-10-17 07:16:00,30.0,14.9,30.08,WSW,240,14.0,14.0,53,0.00,,,0.00,meteohub,2013-10-17 13:16:00,
2013-10-17 07:22:00,30.6,15.1,30.08,WSW,238,8.0,19.0,52,0.00,,,0.00,meteohub,2013-10-17 13:22:00,
2013-10-17 07:28:00,29.8,14.0,30.09,WNW,289,5.0,19.0,51,0.00,,,0.00,meteohub,2013-10-17 13:28:00,
2013-10-17 07:34:00,29.1,14.2,30.08,WSW,244,6.0,19.0,53,0.00,,,0.00,meteohub,2013-10-17 13:34:00,
2013-10-17 07:40:00,29.5,15.3,30.09,WSW,258,4.0,13.0,55,0.00,,,0.00,meteohub,2013-10-17 13:40:00,
2013-10-17 07:46:00,30.0,14.9,30.09,SW,234,4.0,9.0,53,0.00,,,0.00,meteohub,2013-10-17 13:46:00,
2013-10-17 07:52:00,30.6,15.1,30.09,SW,234,2.0,10.0,52,0.00,,,0.00,meteohub,2013-10-17 13:52:00,
2013-10-17 07:58:00,31.5,14.9,30.09,SW,234,1.0,10.0,50,0.00,,,0.00,meteohub,2013-10-17 13:58:00,
2013-10-17 08:04:00,32.4,14.9,30.10,SW,234,3.0,6.0,48,0.00,,,0.00,meteohub,2013-10-17 14:04:00,
2013-10-17 08:11:00,32.7,15.6,30.10,SW,230,0.0,7.0,49,0.00,,,0.00,meteohub,2013-10-17 14:11:00,
2013-10-17 08:17:00,33.4,15.4,30.11,SW,230,6.0,8.0,47,0.00,,,0.00,meteohub,2013-10-17 14:17:00,
2013-10-17 08:22:00,33.6,15.1,30.11,SW,232,4.0,8.0,46,0.00,,,0.00,meteohub,2013-10-17 14:22:00,
2013-10-17 08:29:00,34.0,16.9,30.11,WSW,241,3.0,9.0,49,0.00,,,0.00,meteohub,2013-10-17 14:29:00,
2013-10-17 08:35:00,34.0,17.8,30.11,SSW,205,7.0,12.0,51,0.00,,,0.00,meteohub,2013-10-17 14:35:00,
2013-10-17 08:41:00,34.2,18.3,30.10,SW,225,7.0,15.0,52,0.00,,,0.00,meteohub,2013-10-17 14:41:00,
2013-10-17 08:47:00,34.3,18.1,30.10,SSW,203,8.0,15.0,51,0.00,,,0.00,meteohub,2013-10-17 14:47:00,
2013-10-17 08:53:00,34.7,18.5,30.10,SW,225,10.0,15.0,51,0.00,,,0.00,meteohub,2013-10-17 14:53:00,
2013-10-17 08:59:00,35.1,19.2,30.10,SSW,198,7.0,15.0,52,0.00,,,0.00,meteohub,2013-10-17 14:59:00,
2013-10-17 09:05:00,35.8,19.0,30.10,SSW,206,6.0,15.0,50,0.00,,,0.00,meteohub,2013-10-17 15:05:00,
2013-10-17 09:11:00,36.3,18.5,30.09,SSW,198,8.0,15.0,48,0.00,,,0.00,meteohub,2013-10-17 15:11:00,
2013-10-17 09:17:00,36.9,18.5,30.09,South,189,11.0,14.0,47,0.00,,,0.00,meteohub,2013-10-17 15:17:00,
2013-10-17 09:23:00,37.0,19.2,30.09,SSW,212,10.0,15.0,48,0.00,,,0.00,meteohub,2013-10-17 15:23:00,
2013-10-17 09:29:00,37.2,19.4,30.08,SSW,196,14.0,15.0,48,0.00,,,0.00,meteohub,2013-10-17 15:29:00,
2013-10-17 09:35:00,37.6,19.2,30.08,South,178,11.0,16.0,47,0.00,,,0.00,meteohub,2013-10-17 15:35:00,
2013-10-17 09:41:00,37.9,19.0,30.07,SSW,207,8.0,17.0,46,0.00,,,0.00,meteohub,2013-10-17 15:41:00,
2013-10-17 09:47:00,38.5,19.0,30.06,South,181,7.0,17.0,45,0.00,,,0.00,meteohub,2013-10-17 15:47:00,
2013-10-17 09:53:00,38.8,18.9,30.06,South,179,6.0,17.0,44,0.00,,,0.00,meteohub,2013-10-17 15:53:00,
2013-10-17 09:59:00,39.4,18.1,30.06,South,188,8.0,17.0,42,0.00,,,0.00,meteohub,2013-10-17 15:59:00,
2013-10-17 10:05:00,39.7,17.4,30.07,South,174,7.0,15.0,40,0.00,,,0.00,meteohub,2013-10-17 16:05:00,
2013-10-17 10:11:00,40.3,18.0,30.07,South,178,9.0,16.0,40,0.00,,,0.00,meteohub,2013-10-17 16:11:00,
2013-10-17 10:17:00,40.3,18.5,30.06,South,185,11.0,16.0,41,0.00,,,0.00,meteohub,2013-10-17 16:17:00,
2013-10-17 10:23:00,40.5,18.0,30.06,South,189,7.0,18.0,40,0.00,,,0.00,meteohub,2013-10-17 16:23:00,
2013-10-17 10:29:00,41.4,17.6,30.06,South,174,6.0,18.0,38,0.00,,,0.00,meteohub,2013-10-17 16:29:00,
2013-10-17 10:35:00,42.3,17.2,30.05,South,184,9.0,17.0,36,0.00,,,0.00,meteohub,2013-10-17 16:35:00,
2013-10-17 10:41:00,42.4,14.7,30.04,South,170,6.0,17.0,32,0.00,,,0.00,meteohub,2013-10-17 16:41:00,
2013-10-17 10:47:00,43.0,15.1,30.04,SSW,200,10.0,17.0,32,0.00,,,0.00,meteohub,2013-10-17 16:47:00,
2013-10-17 10:53:00,43.9,16.7,30.04,South,178,11.0,17.0,33,0.00,,,0.00,meteohub,2013-10-17 16:53:00,
2013-10-17 10:59:00,44.4,15.6,30.03,South,191,12.0,17.0,31,0.00,,,0.00,meteohub,2013-10-17 16:59:00,
2013-10-17 11:05:00,43.9,17.2,30.03,South,185,10.0,22.0,34,0.00,,,0.00,meteohub,2013-10-17 17:05:00,
2013-10-17 11:12:00,44.1,16.2,30.03,SSW,209,15.0,22.0,32,0.00,,,0.00,meteohub,2013-10-17 17:12:00,
2013-10-17 11:18:00,44.8,14.5,30.02,SSW,203,9.0,22.0,29,0.00,,,0.00,meteohub,2013-10-17 17:18:00,
2013-10-17 11:24:00,45.1,13.1,30.01,SW,220,20.0,21.0,27,0.00,,,0.00,meteohub,2013-10-17 17:24:00,
2013-10-17 11:30:00,45.5,12.6,30.01,SSW,209,16.0,21.0,26,0.00,,,0.00,meteohub,2013-10-17 17:30:00,
2013-10-17 11:36:00,45.9,12.9,30.01,SW,223,11.0,23.0,26,0.00,,,0.00,meteohub,2013-10-17 17:36:00,
2013-10-17 11:42:00,46.2,11.5,30.00,South,172,11.0,23.0,24,0.00,,,0.00,meteohub,2013-10-17 17:42:00,
2013-10-17 11:48:00,46.2,12.4,29.99,SSW,200,22.0,23.0,25,0.00,,,0.00,meteohub,2013-10-17 17:48:00,
2013-10-17 11:54:00,46.4,11.5,29.99,SW,220,18.0,24.0,24,0.00,,,0.00,meteohub,2013-10-17 17:54:00,
2013-10-17 12:00:00,46.2,12.4,29.98,SW,216,14.0,24.0,25,0.00,,,0.00,meteohub,2013-10-17 18:00:00,
2013-10-17 12:06:00,46.0,12.2,29.99,SSW,201,10.0,23.0,25,0.00,,,0.00,meteohub,2013-10-17 18:06:00,
2013-10-17 12:12:00,46.8,12.7,29.99,WSW,246,13.0,23.0,25,0.00,,,0.00,meteohub,2013-10-17 18:12:00,
2013-10-17 12:18:00,47.3,13.3,29.99,WSW,241,14.0,21.0,25,0.00,,,0.00,meteohub,2013-10-17 18:18:00,
2013-10-17 12:24:00,47.8,11.8,29.98,WSW,255,14.0,22.0,23,0.00,,,0.00,meteohub,2013-10-17 18:24:00,
2013-10-17 12:30:00,47.3,10.4,29.98,SW,236,19.0,22.0,22,0.00,,,0.00,meteohub,2013-10-17 18:30:00,
2013-10-17 12:36:00,46.9,10.0,29.97,SW,226,11.0,25.0,22,0.00,,,0.00,meteohub,2013-10-17 18:36:00,
2013-10-17 12:42:00,47.1,10.2,29.97,SW,236,12.0,28.0,22,0.00,,,0.00,meteohub,2013-10-17 18:42:00,
2013-10-17 12:48:00,47.5,9.5,29.96,WSW,249,18.0,28.0,21,0.00,,,0.00,meteohub,2013-10-17 18:48:00,
2013-10-17 12:54:00,48.0,8.8,29.96,SW,232,15.0,28.0,20,0.00,,,0.00,meteohub,2013-10-17 18:54:00,
2013-10-17 13:00:00,47.7,8.6,29.96,WSW,245,12.0,25.0,20,0.00,,,0.00,meteohub,2013-10-17 19:00:00,
2013-10-17 13:06:00,47.8,9.9,29.96,West,259,15.0,29.0,21,0.00,,,0.00,meteohub,2013-10-17 19:06:00,
2013-10-17 13:12:00,47.8,9.9,29.95,SW,226,18.0,29.0,21,0.00,,,0.00,meteohub,2013-10-17 19:12:00,
2013-10-17 13:18:00,48.4,10.2,29.95,SW,230,22.0,29.0,21,0.00,,,0.00,meteohub,2013-10-17 19:18:00,
2013-10-17 13:24:00,48.0,9.9,29.95,WSW,245,12.0,27.0,21,0.00,,,0.00,meteohub,2013-10-17 19:24:00,
2013-10-17 13:30:00,48.4,11.3,29.95,SW,233,13.0,26.0,22,0.00,,,0.00,meteohub,2013-10-17 19:30:00,
2013-10-17 13:33:00,48.4,11.3,29.94,WSW,253,10.0,26.0,22,0.00,,,0.00,meteohub,2013-10-17 19:33:00,
2013-10-17 13:39:00,48.9,12.7,29.94,WSW,253,21.0,28.0,23,0.00,,,0.00,meteohub,2013-10-17 19:39:00,
2013-10-17 13:45:00,48.7,11.7,29.94,SW,224,12.0,28.0,22,0.00,,,0.00,meteohub,2013-10-17 19:45:00,
2013-10-17 13:51:00,48.9,11.7,29.94,SW,234,15.0,23.0,22,0.00,,,0.00,meteohub,2013-10-17 19:51:00,
2013-10-17 13:57:00,48.7,11.7,29.94,WSW,241,17.0,24.0,22,0.00,,,0.00,meteohub,2013-10-17 19:57:00,
2013-10-17 14:03:00,49.3,12.0,29.94,WSW,241,20.0,25.0,22,0.00,,,0.00,meteohub,2013-10-17 20:03:00,
2013-10-17 14:09:00,49.1,12.9,29.94,WSW,237,18.0,25.0,23,0.00,,,0.00,meteohub,2013-10-17 20:09:00,
2013-10-17 14:15:00,49.1,12.9,29.94,WSW,239,15.0,25.0,23,0.00,,,0.00,meteohub,2013-10-17 20:15:00,
2013-10-17 14:21:00,49.1,10.8,29.94,SW,222,13.0,25.0,21,0.00,,,0.00,meteohub,2013-10-17 20:21:00,
2013-10-17 14:28:00,49.5,12.2,29.93,WSW,243,10.0,25.0,22,0.00,,,0.00,meteohub,2013-10-17 20:28:00,
2013-10-17 14:34:00,49.6,11.3,29.93,SW,222,13.0,23.0,21,0.00,,,0.00,meteohub,2013-10-17 20:34:00,
2013-10-17 14:40:00,50.4,11.8,29.93,WSW,245,12.0,22.0,21,0.00,,,0.00,meteohub,2013-10-17 20:40:00,
2013-10-17 14:46:00,49.8,12.6,29.93,WNW,291,13.0,22.0,22,0.00,,,0.00,meteohub,2013-10-17 20:46:00,
2013-10-17 14:52:00,50.2,11.7,29.92,SSW,205,11.0,22.0,21,0.00,,,0.00,meteohub,2013-10-17 20:52:00,
2013-10-17 14:58:00,50.2,11.7,29.92,SW,230,3.0,21.0,21,0.00,,,0.00,meteohub,2013-10-17 20:58:00,
2013-10-17 15:04:00,50.4,11.8,29.91,West,265,11.0,21.0,21,0.00,,,0.00,meteohub,2013-10-17 21:04:00,
2013-10-17 15:10:00,50.4,12.9,29.91,SW,216,12.0,21.0,22,0.00,,,0.00,meteohub,2013-10-17 21:10:00,
2013-10-17 15:16:00,50.5,13.1,29.91,WSW,238,12.0,18.0,22,0.00,,,0.00,meteohub,2013-10-17 21:16:00,
2013-10-17 15:22:00,50.2,12.7,29.91,SW,225,13.0,18.0,22,0.00,,,0.00,meteohub,2013-10-17 21:22:00,
2013-10-17 15:28:00,49.8,13.5,29.90,West,259,14.0,21.0,23,0.00,,,0.00,meteohub,2013-10-17 21:28:00,
2013-10-17 15:34:00,50.2,13.8,29.90,SW,234,10.0,21.0,23,0.00,,,0.00,meteohub,2013-10-17 21:34:00,
2013-10-17 15:40:00,50.0,14.5,29.90,SSW,212,11.0,21.0,24,0.00,,,0.00,meteohub,2013-10-17 21:40:00,
2013-10-17 15:46:00,50.2,14.7,29.89,SW,217,11.0,18.0,24,0.00,,,0.00,meteohub,2013-10-17 21:46:00,
2013-10-17 15:52:00,49.8,15.4,29.89,WSW,237,14.0,18.0,25,0.00,,,0.00,meteohub,2013-10-17 21:52:00,
2013-10-17 15:58:00,49.6,16.2,29.89,WSW,246,8.0,22.0,26,0.00,,,0.00,meteohub,2013-10-17 21:58:00,
2013-10-17 16:04:00,50.2,16.5,29.89,WSW,244,19.0,22.0,26,0.00,,,0.00,meteohub,2013-10-17 22:04:00,
2013-10-17 16:10:00,49.5,16.0,29.89,SW,228,14.0,22.0,26,0.00,,,0.00,meteohub,2013-10-17 22:10:00,
2013-10-17 16:16:00,49.3,15.8,29.89,SW,230,12.0,22.0,26,0.00,,,0.00,meteohub,2013-10-17 22:16:00,
2013-10-17 16:22:00,49.6,16.2,29.89,WSW,239,6.0,20.0,26,0.00,,,0.00,meteohub,2013-10-17 22:22:00,
2013-10-17 16:28:00,50.0,16.5,29.89,WSW,245,5.0,18.0,26,0.00,,,0.00,meteohub,2013-10-17 22:28:00,
2013-10-17 16:34:00,49.8,15.4,29.89,WSW,238,14.0,20.0,25,0.00,,,0.00,meteohub,2013-10-17 22:34:00,
2013-10-17 16:40:00,48.9,15.4,29.89,WSW,239,14.0,20.0,26,0.00,,,0.00,meteohub,2013-10-17 22:40:00,
2013-10-17 16:46:00,48.7,15.4,29.89,SW,217,12.0,20.0,26,0.00,,,0.00,meteohub,2013-10-17 22:46:00,
2013-10-17 16:52:00,48.9,15.4,29.89,SW,226,8.0,20.0,26,0.00,,,0.00,meteohub,2013-10-17 22:52:00,
2013-10-17 16:58:00,48.9,14.5,29.88,SW,217,18.0,20.0,25,0.00,,,0.00,meteohub,2013-10-17 22:58:00,
2013-10-17 17:04:00,48.6,15.3,29.88,WSW,255,10.0,21.0,26,0.00,,,0.00,meteohub,2013-10-17 23:04:00,
2013-10-17 17:10:00,48.6,15.3,29.88,WSW,245,9.0,22.0,26,0.00,,,0.00,meteohub,2013-10-17 23:10:00,
2013-10-17 17:16:00,48.4,15.1,29.88,SW,217,14.0,22.0,26,0.00,,,0.00,meteohub,2013-10-17 23:16:00,
2013-10-17 17:22:00,48.0,14.7,29.89,WSW,239,14.0,22.0,26,0.00,,,0.00,meteohub,2013-10-17 23:22:00,
2013-10-17 17:28:00,47.8,14.5,29.88,SW,232,12.0,22.0,26,0.00,,,0.00,meteohub,2013-10-17 23:28:00,
2013-10-17 17:34:00,47.7,14.4,29.88,WSW,257,10.0,22.0,26,0.00,,,0.00,meteohub,2013-10-17 23:34:00,
2013-10-17 17:40:00,47.5,14.4,29.88,SW,226,9.0,17.0,26,0.00,,,0.00,meteohub,2013-10-17 23:40:00,
2013-10-17 17:47:00,47.1,14.0,29.88,SW,231,15.0,17.0,26,0.00,,,0.00,meteohub,2013-10-17 23:47:00,
2013-10-17 17:52:00,46.8,13.6,29.89,WSW,245,10.0,19.0,26,0.00,,,0.00,meteohub,2013-10-17 23:52:00,
2013-10-17 17:59:00,46.2,14.0,29.89,WSW,251,8.0,19.0,27,0.00,,,0.00,meteohub,2013-10-17 23:59:00,
2013-10-17 18:05:00,45.3,13.3,29.89,WSW,241,7.0,19.0,27,0.00,,,0.00,meteohub,2013-10-18 00:05:00,
2013-10-17 18:11:00,44.8,13.6,29.89,WSW,243,8.0,10.0,28,0.00,,,0.00,meteohub,2013-10-18 00:11:00,
2013-10-17 18:17:00,44.2,13.1,29.89,WSW,243,4.0,10.0,28,0.00,,,0.00,meteohub,2013-10-18 00:17:00,
2013-10-17 18:23:00,43.9,13.6,29.89,WSW,243,3.0,9.0,29,0.00,,,0.00,meteohub,2013-10-18 00:23:00,
2013-10-17 18:29:00,43.3,13.3,29.89,WSW,243,4.0,8.0,29,0.00,,,0.00,meteohub,2013-10-18 00:29:00,
2013-10-17 18:35:00,43.2,13.8,29.90,SW,225,6.0,7.0,30,0.00,,,0.00,meteohub,2013-10-18 00:35:00,
2013-10-17 18:41:00,43.2,13.8,29.90,WSW,244,5.0,10.0,30,0.00,,,0.00,meteohub,2013-10-18 00:41:00,
2013-10-17 18:47:00,42.6,14.0,29.90,WSW,244,2.0,10.0,31,0.00,,,0.00,meteohub,2013-10-18 00:47:00,
2013-10-17 18:53:00,42.4,14.7,29.90,WSW,244,4.0,10.0,32,0.00,,,0.00,meteohub,2013-10-18 00:53:00,
2013-10-17 18:59:00,42.1,14.4,29.90,WSW,242,6.0,14.0,32,0.00,,,0.00,meteohub,2013-10-18 00:59:00,
2013-10-17 19:05:00,41.9,14.9,29.91,WSW,240,5.0,14.0,33,0.00,,,0.00,meteohub,2013-10-18 01:05:00,
2013-10-17 19:11:00,41.7,14.7,29.91,WSW,240,5.0,8.0,33,0.00,,,0.00,meteohub,2013-10-18 01:11:00,
2013-10-17 19:17:00,41.4,14.4,29.91,WSW,240,5.0,8.0,33,0.00,,,0.00,meteohub,2013-10-18 01:17:00,
2013-10-17 19:23:00,41.4,14.4,29.91,WSW,237,6.0,8.0,33,0.00,,,0.00,meteohub,2013-10-18 01:23:00,
2013-10-17 19:29:00,41.2,14.2,29.91,WSW,237,5.0,9.0,33,0.00,,,0.00,meteohub,2013-10-18 01:29:00,
2013-10-17 19:35:00,41.0,14.0,29.92,WSW,237,5.0,8.0,33,0.00,,,0.00,meteohub,2013-10-18 01:35:00,
2013-10-17 19:41:00,40.6,13.8,29.92,WSW,237,6.0,8.0,33,0.00,,,0.00,meteohub,2013-10-18 01:41:00,
2013-10-17 19:47:00,40.6,13.8,29.92,SW,228,7.0,8.0,33,0.00,,,0.00,meteohub,2013-10-18 01:47:00,
2013-10-17 19:53:00,40.6,13.8,29.92,SW,230,4.0,12.0,33,0.00,,,0.00,meteohub,2013-10-18 01:53:00,
2013-10-17 19:59:00,40.5,13.6,29.92,SW,235,7.0,12.0,33,0.00,,,0.00,meteohub,2013-10-18 01:59:00,
2013-10-17 20:05:00,39.9,13.1,29.92,SW,235,4.0,10.0,33,0.00,,,0.00,meteohub,2013-10-18 02:05:00,
2013-10-17 20:11:00,39.7,12.9,29.92,SW,235,8.0,9.0,33,0.00,,,0.00,meteohub,2013-10-18 02:11:00,
2013-10-17 20:17:00,39.4,12.7,29.92,SW,235,8.0,8.0,33,0.00,,,0.00,meteohub,2013-10-18 02:17:00,
2013-10-17 20:23:00,39.4,12.7,29.92,WSW,237,8.0,8.0,33,0.00,,,0.00,meteohub,2013-10-18 02:23:00,
2013-10-17 20:29:00,38.8,12.9,29.92,SW,236,7.0,10.0,34,0.00,,,0.00,meteohub,2013-10-18 02:29:00,
2013-10-17 20:35:00,38.7,12.7,29.93,WSW,237,9.0,11.0,34,0.00,,,0.00,meteohub,2013-10-18 02:35:00,
2013-10-17 20:42:00,38.7,12.0,29.92,SW,236,7.0,11.0,33,0.00,,,0.00,meteohub,2013-10-18 02:42:00,
2013-10-17 20:48:00,38.8,12.2,29.92,SW,234,10.0,12.0,33,0.00,,,0.00,meteohub,2013-10-18 02:48:00,
2013-10-17 20:54:00,38.7,12.0,29.92,SW,235,9.0,12.0,33,0.00,,,0.00,meteohub,2013-10-18 02:54:00,
2013-10-17 21:00:00,38.8,11.5,29.92,WSW,237,8.0,12.0,32,0.00,,,0.00,meteohub,2013-10-18 03:00:00,
2013-10-17 21:06:00,39.4,11.3,29.92,WSW,250,9.0,15.0,31,0.00,,,0.00,meteohub,2013-10-18 03:06:00,
2013-10-17 21:12:00,39.4,11.3,29.93,West,269,7.0,15.0,31,0.00,,,0.00,meteohub,2013-10-18 03:12:00,
2013-10-17 21:18:00,39.6,11.5,29.93,West,279,6.0,15.0,31,0.00,,,0.00,meteohub,2013-10-18 03:18:00,
2013-10-17 21:24:00,38.8,11.5,29.94,WNW,300,4.0,14.0,32,0.00,,,0.00,meteohub,2013-10-18 03:24:00,
2013-10-17 21:30:00,38.5,11.8,29.94,NW,315,4.0,14.0,33,0.00,,,0.00,meteohub,2013-10-18 03:30:00,
2013-10-17 21:36:00,38.7,10.6,29.95,WNW,303,3.0,10.0,31,0.00,,,0.00,meteohub,2013-10-18 03:36:00,
2013-10-17 21:42:00,38.8,11.5,29.95,WNW,303,0.0,10.0,32,0.00,,,0.00,meteohub,2013-10-18 03:42:00,
2013-10-17 21:48:00,39.0,10.9,29.95,West,280,6.0,7.0,31,0.00,,,0.00,meteohub,2013-10-18 03:48:00,
2013-10-17 21:54:00,39.2,10.4,29.94,West,280,3.0,8.0,30,0.00,,,0.00,meteohub,2013-10-18 03:54:00,
2013-10-17 22:00:00,38.7,10.6,29.94,SW,225,7.0,8.0,31,0.00,,,0.00,meteohub,2013-10-18 04:00:00,
2013-10-17 22:02:00,38.7,10.6,29.94,SW,226,4.0,8.0,31,0.00,,,0.00,meteohub,2013-10-18 04:02:00,
2013-10-17 22:03:00,38.5,10.4,29.94,SW,226,0.0,8.0,31,0.00,,,0.00,meteohub,2013-10-18 04:03:00,
2013-10-17 22:06:00,38.5,10.4,29.94,SW,226,0.0,9.0,31,0.00,,,0.00,meteohub,2013-10-18 04:06:00,
2013-10-17 22:12:00,37.9,10.8,29.94,SW,226,4.0,9.0,32,0.00,,,0.00,meteohub,2013-10-18 04:12:00,
2013-10-17 22:18:00,37.6,10.4,29.94,SW,226,2.0,7.0,32,0.00,,,0.00,meteohub,2013-10-18 04:18:00,
2013-10-17 22:22:00,37.2,10.0,29.94,SW,226,3.0,5.0,32,0.00,,,0.00,meteohub,2013-10-18 04:22:00,
2013-10-17 22:27:00,36.9,10.4,29.94,NNW,336,3.0,5.0,33,0.00,,,0.00,meteohub,2013-10-18 04:27:00,
2013-10-17 22:33:00,36.7,10.9,29.94,NNW,336,2.0,8.0,34,0.00,,,0.00,meteohub,2013-10-18 04:33:00,
2013-10-17 22:39:00,36.7,11.7,29.94,NNW,336,0.0,11.0,35,0.00,,,0.00,meteohub,2013-10-18 04:39:00,
2013-10-17 22:45:00,36.3,11.8,29.94,NNW,336,3.0,5.0,36,0.00,,,0.00,meteohub,2013-10-18 04:45:00,
2013-10-17 22:48:00,36.1,12.4,29.94,NNW,336,3.0,5.0,37,0.00,,,0.00,meteohub,2013-10-18 04:48:00,
2013-10-17 22:54:00,35.8,17.1,29.94,NNE,18,2.0,5.0,46,0.00,,,0.00,meteohub,2013-10-18 04:54:00,
2013-10-17 23:00:00,35.1,18.3,29.94,NNE,19,1.0,5.0,50,0.00,,,0.00,meteohub,2013-10-18 05:00:00,
2013-10-17 23:06:00,34.5,19.2,29.94,NNE,19,0.0,4.0,53,0.00,,,0.00,meteohub,2013-10-18 05:06:00,
2013-10-17 23:12:00,34.3,18.5,29.93,NNE,19,0.0,4.0,52,0.00,,,0.00,meteohub,2013-10-18 05:12:00,
2013-10-17 23:18:00,33.8,19.8,29.93,NNE,19,0.0,4.0,56,0.00,,,0.00,meteohub,2013-10-18 05:18:00,
2013-10-17 23:24:00,33.6,19.6,29.92,NNE,19,1.0,2.0,56,0.00,,,0.00,meteohub,2013-10-18 05:24:00,
2013-10-17 23:30:00,33.3,19.8,29.92,NNE,19,2.0,3.0,57,0.00,,,0.00,meteohub,2013-10-18 05:30:00,
2013-10-17 23:36:00,32.9,19.4,29.92,NNE,19,1.0,3.0,57,0.00,,,0.00,meteohub,2013-10-18 05:36:00,
2013-10-17 23:42:00,32.7,19.6,29.92,NNE,19,2.0,4.0,58,0.00,,,0.00,meteohub,2013-10-18 05:42:00,
2013-10-17 23:49:00,32.5,19.0,29.92,NNE,19,0.0,4.0,57,0.00,,,0.00,meteohub,2013-10-18 05:49:00,
2013-10-17 23:55:00,32.4,18.9,29.91,NNE,19,1.0,4.0,57,0.00,,,0.00,meteohub,2013-10-18 05:55:00,